Terminal Aerodrome Forecast
Issued by NWS Charleston, WV

Home | Current Version | Previous Version | Text Only | Print | Product List | Glossary On
Versions: 1 2 3 4 5 6 7 8 9 10 11 12 13 14 15 16 17 18 19 20 21
867
FTUS41 KRLX 181120
TAFBKW
TAF
KBKW 181120Z 1812/1912 21006KT P6SM BKN070
      TEMPO 1812/1813 6SM SHRA OVC040
     FM181300 22008KT 5SM SHRA SCT020 BKN045
      TEMPO 1813/1816 3SM TSRA OVC015CB
     FM181600 23007KT P6SM SHRA VCTS BKN035CB
     FM182100 27009KT P6SM BKN040
     FM190100 29004KT P6SM SCT060
     FM190600 28002KT P6SM SCT250
     FM190900 VRB02KT 5SM BR SCT250=

USA.gov is the U.S. government's official web portal to all federal, state and local government web resources and services.